sensor_id;sensor_type;location;lat;lon;timestamp;temperature;humidity
59572;DHT22;70118;45.638;11.714;2023-09-19T00:01:42;27.30;85.40
59572;DHT22;70118;45.638;11.714;2023-09-19T00:04:12;27.30;85.20
59572;DHT22;70118;45.638;11.714;2023-09-19T00:06:38;27.30;85.30
59572;DHT22;70118;45.638;11.714;2023-09-19T00:09:04;27.30;85.10
59572;DHT22;70118;45.638;11.714;2023-09-19T00:11:30;27.30;85.10
59572;DHT22;70118;45.638;11.714;2023-09-19T00:13:57;27.30;85.00
59572;DHT22;70118;45.638;11.714;2023-09-19T00:16:25;27.20;84.90
59572;DHT22;70118;45.638;11.714;2023-09-19T00:18:52;27.30;84.80
59572;DHT22;70118;45.638;11.714;2023-09-19T00:21:18;27.20;84.80
59572;DHT22;70118;45.638;11.714;2023-09-19T00:23:47;27.30;84.80
59572;DHT22;70118;45.638;11.714;2023-09-19T00:26:13;27.20;84.60
59572;DHT22;70118;45.638;11.714;2023-09-19T00:28:39;27.10;84.80
59572;DHT22;70118;45.638;11.714;2023-09-19T00:31:08;27.20;84.70
59572;DHT22;70118;45.638;11.714;2023-09-19T00:33:35;27.30;84.60
59572;DHT22;70118;45.638;11.714;2023-09-19T00:36:02;27.20;84.60
59572;DHT22;70118;45.638;11.714;2023-09-19T00:38:31;27.20;84.50
59572;DHT22;70118;45.638;11.714;2023-09-19T00:40:58;27.20;84.50
59572;DHT22;70118;45.638;11.714;2023-09-19T00:43:26;27.20;84.60
59572;DHT22;70118;45.638;11.714;2023-09-19T00:45:54;27.20;84.50
59572;DHT22;70118;45.638;11.714;2023-09-19T00:48:21;27.10;84.50
59572;DHT22;70118;45.638;11.714;2023-09-19T00:50:49;27.20;84.50
59572;DHT22;70118;45.638;11.714;2023-09-19T00:53:20;27.20;84.50
59572;DHT22;70118;45.638;11.714;2023-09-19T00:55:47;27.30;84.40
59572;DHT22;70118;45.638;11.714;2023-09-19T00:58:14;27.20;84.30
59572;DHT22;70118;45.638;11.714;2023-09-19T01:00:42;27.20;84.40
59572;DHT22;70118;45.638;11.714;2023-09-19T01:03:10;27.10;84.30
59572;DHT22;70118;45.638;11.714;2023-09-19T01:05:43;27.20;84.20
59572;DHT22;70118;45.638;11.714;2023-09-19T01:08:10;27.20;84.20
59572;DHT22;70118;45.638;11.714;2023-09-19T01:10:46;27.20;84.20
59572;DHT22;70118;45.638;11.714;2023-09-19T01:13:48;27.20;84.00
59572;DHT22;70118;45.638;11.714;2023-09-19T01:19:56;27.10;83.70
59572;DHT22;70118;45.638;11.714;2023-09-19T01:22:46;27.10;83.60
59572;DHT22;70118;45.638;11.714;2023-09-19T01:25:29;27.10;83.80
59572;DHT22;70118;45.638;11.714;2023-09-19T01:30:57;27.20;83.60
59572;DHT22;70118;45.638;11.714;2023-09-19T01:33:26;27.10;83.90
59572;DHT22;70118;45.638;11.714;2023-09-19T01:35:52;27.10;83.90
59572;DHT22;70118;45.638;11.714;2023-09-19T01:38:24;27.10;83.80
59572;DHT22;70118;45.638;11.714;2023-09-19T01:41:17;27.10;83.70
59572;DHT22;70118;45.638;11.714;2023-09-19T01:43:49;27.10;83.40
59572;DHT22;70118;45.638;11.714;2023-09-19T01:46:25;27.10;83.50
59572;DHT22;70118;45.638;11.714;2023-09-19T01:54:40;27.10;83.10
59572;DHT22;70118;45.638;11.714;2023-09-19T01:57:26;27.10;83.10
59572;DHT22;70118;45.638;11.714;2023-09-19T02:00:06;27.10;82.90
59572;DHT22;70118;45.638;11.714;2023-09-19T02:02:40;27.10;82.80
59572;DHT22;70118;45.638;11.714;2023-09-19T02:05:08;27.00;82.80
59572;DHT22;70118;45.638;11.714;2023-09-19T02:07:34;27.10;83.00
59572;DHT22;70118;45.638;11.714;2023-09-19T02:10:04;27.10;82.90
59572;DHT22;70118;45.638;11.714;2023-09-19T02:12:31;27.10;82.90
59572;DHT22;70118;45.638;11.714;2023-09-19T02:14:58;27.00;83.00
59572;DHT22;70118;45.638;11.714;2023-09-19T02:17:27;27.00;82.70
59572;DHT22;70118;45.638;11.714;2023-09-19T02:19:56;27.10;82.50
59572;DHT22;70118;45.638;11.714;2023-09-19T02:22:22;27.10;82.60
59572;DHT22;70118;45.638;11.714;2023-09-19T02:24:48;27.10;82.70
59572;DHT22;70118;45.638;11.714;2023-09-19T02:27:14;27.00;82.50
59572;DHT22;70118;45.638;11.714;2023-09-19T02:29:42;27.10;82.50
59572;DHT22;70118;45.638;11.714;2023-09-19T02:32:08;27.00;82.30
59572;DHT22;70118;45.638;11.714;2023-09-19T02:34:35;27.10;82.40
59572;DHT22;70118;45.638;11.714;2023-09-19T02:37:06;27.00;82.30
59572;DHT22;70118;45.638;11.714;2023-09-19T02:39:34;26.90;82.10
59572;DHT22;70118;45.638;11.714;2023-09-19T02:42:01;27.10;82.20
59572;DHT22;70118;45.638;11.714;2023-09-19T02:44:28;27.00;82.20
59572;DHT22;70118;45.638;11.714;2023-09-19T02:46:54;27.00;82.20
59572;DHT22;70118;45.638;11.714;2023-09-19T02:49:19;27.00;82.00
59572;DHT22;70118;45.638;11.714;2023-09-19T02:51:45;26.90;82.00
59572;DHT22;70118;45.638;11.714;2023-09-19T02:54:13;26.90;81.90
59572;DHT22;70118;45.638;11.714;2023-09-19T02:56:39;27.00;81.80
59572;DHT22;70118;45.638;11.714;2023-09-19T02:59:05;27.00;81.70
59572;DHT22;70118;45.638;11.714;2023-09-19T03:01:31;27.00;81.60
59572;DHT22;70118;45.638;11.714;2023-09-19T03:03:57;27.00;81.70
59572;DHT22;70118;45.638;11.714;2023-09-19T03:06:24;27.00;81.60
59572;DHT22;70118;45.638;11.714;2023-09-19T03:08:49;26.90;81.60
59572;DHT22;70118;45.638;11.714;2023-09-19T03:11:17;27.00;81.50
59572;DHT22;70118;45.638;11.714;2023-09-19T03:13:51;27.00;81.60
59572;DHT22;70118;45.638;11.714;2023-09-19T03:16:17;26.90;81.50
59572;DHT22;70118;45.638;11.714;2023-09-19T03:18:44;26.90;81.60
59572;DHT22;70118;45.638;11.714;2023-09-19T03:21:10;26.90;81.40
59572;DHT22;70118;45.638;11.714;2023-09-19T03:23:36;27.00;81.30
59572;DHT22;70118;45.638;11.714;2023-09-19T03:26:04;26.90;81.30
59572;DHT22;70118;45.638;11.714;2023-09-19T03:28:33;27.00;81.30
59572;DHT22;70118;45.638;11.714;2023-09-19T03:31:02;26.90;81.20
59572;DHT22;70118;45.638;11.714;2023-09-19T03:33:28;27.00;81.20
59572;DHT22;70118;45.638;11.714;2023-09-19T03:35:54;26.90;81.10
59572;DHT22;70118;45.638;11.714;2023-09-19T03:38:20;26.90;81.20
59572;DHT22;70118;45.638;11.714;2023-09-19T03:40:47;26.90;81.10
59572;DHT22;70118;45.638;11.714;2023-09-19T03:43:14;26.90;81.00
59572;DHT22;70118;45.638;11.714;2023-09-19T03:45:40;26.90;81.00
59572;DHT22;70118;45.638;11.714;2023-09-19T03:48:10;26.90;81.10
59572;DHT22;70118;45.638;11.714;2023-09-19T03:50:36;26.90;80.80
59572;DHT22;70118;45.638;11.714;2023-09-19T03:53:02;26.90;80.90
59572;DHT22;70118;45.638;11.714;2023-09-19T03:55:28;26.90;80.90
59572;DHT22;70118;45.638;11.714;2023-09-19T03:57:55;26.80;80.80
59572;DHT22;70118;45.638;11.714;2023-09-19T04:00:21;26.90;80.80
59572;DHT22;70118;45.638;11.714;2023-09-19T04:02:49;26.80;80.70
59572;DHT22;70118;45.638;11.714;2023-09-19T04:05:16;26.80;80.60
59572;DHT22;70118;45.638;11.714;2023-09-19T04:07:42;26.80;80.60
59572;DHT22;70118;45.638;11.714;2023-09-19T04:10:09;26.90;80.50
59572;DHT22;70118;45.638;11.714;2023-09-19T04:12:37;26.80;80.50
59572;DHT22;70118;45.638;11.714;2023-09-19T04:15:05;26.90;80.30
59572;DHT22;70118;45.638;11.714;2023-09-19T04:17:31;26.80;80.30
59572;DHT22;70118;45.638;11.714;2023-09-19T04:20:00;26.80;80.30
59572;DHT22;70118;45.638;11.714;2023-09-19T04:22:26;26.80;80.30
59572;DHT22;70118;45.638;11.714;2023-09-19T04:24:52;26.80;80.20
59572;DHT22;70118;45.638;11.714;2023-09-19T04:27:17;26.80;80.10
59572;DHT22;70118;45.638;11.714;2023-09-19T04:29:44;26.80;80.10
59572;DHT22;70118;45.638;11.714;2023-09-19T04:32:12;26.80;80.00
59572;DHT22;70118;45.638;11.714;2023-09-19T04:34:41;26.80;80.00
59572;DHT22;70118;45.638;11.714;2023-09-19T04:37:07;26.80;79.80
59572;DHT22;70118;45.638;11.714;2023-09-19T04:39:33;26.70;80.00
59572;DHT22;70118;45.638;11.714;2023-09-19T04:41:59;26.80;79.80
59572;DHT22;70118;45.638;11.714;2023-09-19T04:44:25;26.80;79.70
59572;DHT22;70118;45.638;11.714;2023-09-19T04:46:51;26.80;79.90
59572;DHT22;70118;45.638;11.714;2023-09-19T04:49:17;26.70;79.70
59572;DHT22;70118;45.638;11.714;2023-09-19T04:51:43;26.80;79.70
59572;DHT22;70118;45.638;11.714;2023-09-19T04:54:09;26.70;79.70
59572;DHT22;70118;45.638;11.714;2023-09-19T04:56:35;26.60;79.70
59572;DHT22;70118;45.638;11.714;2023-09-19T04:59:01;26.70;79.80
59572;DHT22;70118;45.638;11.714;2023-09-19T05:01:27;26.70;79.60
59572;DHT22;70118;45.638;11.714;2023-09-19T05:03:53;26.60;79.60
59572;DHT22;70118;45.638;11.714;2023-09-19T05:06:23;26.70;79.40
59572;DHT22;70118;45.638;11.714;2023-09-19T05:08:50;26.70;79.50
59572;DHT22;70118;45.638;11.714;2023-09-19T05:11:20;26.70;79.50
59572;DHT22;70118;45.638;11.714;2023-09-19T05:13:47;26.70;79.50
59572;DHT22;70118;45.638;11.714;2023-09-19T05:16:13;26.60;79.40
59572;DHT22;70118;45.638;11.714;2023-09-19T05:18:39;26.60;79.40
59572;DHT22;70118;45.638;11.714;2023-09-19T05:21:05;26.60;79.40
59572;DHT22;70118;45.638;11.714;2023-09-19T05:23:31;26.70;79.50
59572;DHT22;70118;45.638;11.714;2023-09-19T05:25:57;26.60;79.30
59572;DHT22;70118;45.638;11.714;2023-09-19T05:28:25;26.60;79.30
59572;DHT22;70118;45.638;11.714;2023-09-19T05:30:52;26.70;79.20
59572;DHT22;70118;45.638;11.714;2023-09-19T05:33:19;26.70;79.10
59572;DHT22;70118;45.638;11.714;2023-09-19T05:35:48;26.70;78.90
59572;DHT22;70118;45.638;11.714;2023-09-19T05:38:14;26.80;78.90
59572;DHT22;70118;45.638;11.714;2023-09-19T05:40:45;26.70;78.90
59572;DHT22;70118;45.638;11.714;2023-09-19T05:43:13;26.80;78.80
59572;DHT22;70118;45.638;11.714;2023-09-19T05:45:40;26.80;78.90
59572;DHT22;70118;45.638;11.714;2023-09-19T05:48:15;26.80;78.80
59572;DHT22;70118;45.638;11.714;2023-09-19T05:50:42;26.80;79.00
59572;DHT22;70118;45.638;11.714;2023-09-19T05:53:08;26.80;79.20
59572;DHT22;70118;45.638;11.714;2023-09-19T05:55:38;26.90;79.30
59572;DHT22;70118;45.638;11.714;2023-09-19T05:58:04;26.80;80.00
59572;DHT22;70118;45.638;11.714;2023-09-19T06:00:30;26.90;80.30
59572;DHT22;70118;45.638;11.714;2023-09-19T06:02:59;26.80;80.20
59572;DHT22;70118;45.638;11.714;2023-09-19T06:05:27;26.80;80.20
59572;DHT22;70118;45.638;11.714;2023-09-19T06:07:54;27.00;80.20
59572;DHT22;70118;45.638;11.714;2023-09-19T06:10:20;27.10;79.90
59572;DHT22;70118;45.638;11.714;2023-09-19T06:12:49;27.10;79.90
59572;DHT22;70118;45.638;11.714;2023-09-19T06:15:18;27.10;79.90
59572;DHT22;70118;45.638;11.714;2023-09-19T06:17:47;27.00;80.00
59572;DHT22;70118;45.638;11.714;2023-09-19T06:20:16;27.10;80.20
59572;DHT22;70118;45.638;11.714;2023-09-19T06:22:46;27.00;80.30
59572;DHT22;70118;45.638;11.714;2023-09-19T06:25:15;26.90;80.40
59572;DHT22;70118;45.638;11.714;2023-09-19T06:27:51;27.00;80.40
59572;DHT22;70118;45.638;11.714;2023-09-19T06:30:24;26.90;80.60
59572;DHT22;70118;45.638;11.714;2023-09-19T06:32:58;26.90;80.70
59572;DHT22;70118;45.638;11.714;2023-09-19T06:35:26;26.90;80.70
59572;DHT22;70118;45.638;11.714;2023-09-19T06:37:56;27.00;80.80
59572;DHT22;70118;45.638;11.714;2023-09-19T06:40:24;27.00;81.00
59572;DHT22;70118;45.638;11.714;2023-09-19T06:42:54;27.00;81.00
59572;DHT22;70118;45.638;11.714;2023-09-19T06:45:24;26.90;81.10
59572;DHT22;70118;45.638;11.714;2023-09-19T06:47:54;26.90;81.10
59572;DHT22;70118;45.638;11.714;2023-09-19T06:50:24;27.00;81.20
59572;DHT22;70118;45.638;11.714;2023-09-19T06:52:52;27.00;80.90
59572;DHT22;70118;45.638;11.714;2023-09-19T06:55:20;27.00;81.40
59572;DHT22;70118;45.638;11.714;2023-09-19T06:57:47;26.90;82.30
59572;DHT22;70118;45.638;11.714;2023-09-19T07:00:13;26.80;82.20
59572;DHT22;70118;45.638;11.714;2023-09-19T07:03:04;26.80;81.90
59572;DHT22;70118;45.638;11.714;2023-09-19T07:05:37;27.20;81.50
59572;DHT22;70118;45.638;11.714;2023-09-19T07:08:05;27.60;80.70
59572;DHT22;70118;45.638;11.714;2023-09-19T07:10:32;27.90;80.20
59572;DHT22;70118;45.638;11.714;2023-09-19T07:13:03;28.30;80.00
59572;DHT22;70118;45.638;11.714;2023-09-19T07:15:33;28.50;79.50
59572;DHT22;70118;45.638;11.714;2023-09-19T07:18:05;28.60;78.80
59572;DHT22;70118;45.638;11.714;2023-09-19T07:20:32;28.70;79.40
59572;DHT22;70118;45.638;11.714;2023-09-19T07:22:58;28.60;79.60
59572;DHT22;70118;45.638;11.714;2023-09-19T07:25:27;28.40;80.30
59572;DHT22;70118;45.638;11.714;2023-09-19T07:27:59;28.20;80.00
59572;DHT22;70118;45.638;11.714;2023-09-19T07:30:26;28.00;80.20
59572;DHT22;70118;45.638;11.714;2023-09-19T07:32:52;27.90;81.20
59572;DHT22;70118;45.638;11.714;2023-09-19T07:35:18;27.70;81.90
59572;DHT22;70118;45.638;11.714;2023-09-19T07:37:50;27.60;82.50
59572;DHT22;70118;45.638;11.714;2023-09-19T07:40:17;27.60;82.70
59572;DHT22;70118;45.638;11.714;2023-09-19T07:42:44;27.50;83.00
59572;DHT22;70118;45.638;11.714;2023-09-19T07:45:12;27.60;83.00
59572;DHT22;70118;45.638;11.714;2023-09-19T07:47:49;27.20;83.90
59572;DHT22;70118;45.638;11.714;2023-09-19T07:50:19;27.20;85.30
59572;DHT22;70118;45.638;11.714;2023-09-19T07:52:48;27.20;85.10
59572;DHT22;70118;45.638;11.714;2023-09-19T07:55:16;27.20;84.80
59572;DHT22;70118;45.638;11.714;2023-09-19T07:57:43;27.20;84.50
59572;DHT22;70118;45.638;11.714;2023-09-19T08:00:10;27.30;84.40
59572;DHT22;70118;45.638;11.714;2023-09-19T08:02:39;27.20;84.50
59572;DHT22;70118;45.638;11.714;2023-09-19T08:05:06;27.10;85.10
59572;DHT22;70118;45.638;11.714;2023-09-19T08:07:36;27.20;84.80
59572;DHT22;70118;45.638;11.714;2023-09-19T08:10:05;27.20;84.80
59572;DHT22;70118;45.638;11.714;2023-09-19T08:12:40;27.10;85.00
59572;DHT22;70118;45.638;11.714;2023-09-19T08:15:14;27.20;84.70
59572;DHT22;70118;45.638;11.714;2023-09-19T08:17:40;27.20;84.50
59572;DHT22;70118;45.638;11.714;2023-09-19T08:20:07;27.30;84.70
59572;DHT22;70118;45.638;11.714;2023-09-19T08:22:33;27.20;84.80
59572;DHT22;70118;45.638;11.714;2023-09-19T08:25:00;27.40;84.80
59572;DHT22;70118;45.638;11.714;2023-09-19T08:27:27;27.50;84.00
59572;DHT22;70118;45.638;11.714;2023-09-19T08:29:53;27.60;83.60
59572;DHT22;70118;45.638;11.714;2023-09-19T08:32:19;27.60;83.60
59572;DHT22;70118;45.638;11.714;2023-09-19T08:34:50;27.70;83.50
59572;DHT22;70118;45.638;11.714;2023-09-19T08:37:15;27.80;83.20
59572;DHT22;70118;45.638;11.714;2023-09-19T08:39:43;27.70;83.30
59572;DHT22;70118;45.638;11.714;2023-09-19T08:42:10;27.70;83.50
59572;DHT22;70118;45.638;11.714;2023-09-19T08:44:37;27.70;83.50
59572;DHT22;70118;45.638;11.714;2023-09-19T08:47:10;27.70;83.40
59572;DHT22;70118;45.638;11.714;2023-09-19T08:50:01;27.70;84.00
59572;DHT22;70118;45.638;11.714;2023-09-19T08:52:42;27.80;84.10
59572;DHT22;70118;45.638;11.714;2023-09-19T08:55:12;27.70;83.50
59572;DHT22;70118;45.638;11.714;2023-09-19T08:57:39;27.80;84.40
59572;DHT22;70118;45.638;11.714;2023-09-19T09:00:08;27.70;84.10
59572;DHT22;70118;45.638;11.714;2023-09-19T09:02:39;27.70;83.90
59572;DHT22;70118;45.638;11.714;2023-09-19T09:05:11;27.70;83.80
59572;DHT22;70118;45.638;11.714;2023-09-19T09:07:40;27.80;84.00
59572;DHT22;70118;45.638;11.714;2023-09-19T09:10:07;27.70;84.30
59572;DHT22;70118;45.638;11.714;2023-09-19T09:12:34;27.80;83.80
59572;DHT22;70118;45.638;11.714;2023-09-19T09:15:02;27.90;83.90
59572;DHT22;70118;45.638;11.714;2023-09-19T09:17:30;27.80;83.90
59572;DHT22;70118;45.638;11.714;2023-09-19T09:19:56;27.90;83.70
59572;DHT22;70118;45.638;11.714;2023-09-19T09:22:22;27.80;83.70
59572;DHT22;70118;45.638;11.714;2023-09-19T09:24:57;27.80;83.70
59572;DHT22;70118;45.638;11.714;2023-09-19T09:27:32;27.90;83.70
59572;DHT22;70118;45.638;11.714;2023-09-19T09:29:59;27.90;83.10
59572;DHT22;70118;45.638;11.714;2023-09-19T09:32:29;27.90;83.40
59572;DHT22;70118;45.638;11.714;2023-09-19T09:35:00;27.90;83.60
59572;DHT22;70118;45.638;11.714;2023-09-19T09:37:27;27.90;83.40
59572;DHT22;70118;45.638;11.714;2023-09-19T09:40:01;27.90;83.80
59572;DHT22;70118;45.638;11.714;2023-09-19T09:42:39;28.00;84.60
59572;DHT22;70118;45.638;11.714;2023-09-19T09:45:17;27.90;84.00
59572;DHT22;70118;45.638;11.714;2023-09-19T09:47:48;28.00;83.90
59572;DHT22;70118;45.638;11.714;2023-09-19T09:50:31;28.00;83.40
59572;DHT22;70118;45.638;11.714;2023-09-19T09:53:21;28.00;83.10
59572;DHT22;70118;45.638;11.714;2023-09-19T09:56:16;28.10;83.20
59572;DHT22;70118;45.638;11.714;2023-09-19T09:58:52;28.00;83.00
59572;DHT22;70118;45.638;11.714;2023-09-19T10:01:21;28.00;84.10
59572;DHT22;70118;45.638;11.714;2023-09-19T10:03:57;27.90;83.80
59572;DHT22;70118;45.638;11.714;2023-09-19T10:06:23;27.90;84.00
59572;DHT22;70118;45.638;11.714;2023-09-19T10:11:48;28.00;83.20
59572;DHT22;70118;45.638;11.714;2023-09-19T10:14:25;28.00;83.40
59572;DHT22;70118;45.638;11.714;2023-09-19T10:16:58;28.00;83.50
59572;DHT22;70118;45.638;11.714;2023-09-19T10:19:44;28.10;83.10
59572;DHT22;70118;45.638;11.714;2023-09-19T10:22:13;28.10;82.80
59572;DHT22;70118;45.638;11.714;2023-09-19T10:24:47;28.10;82.60
59572;DHT22;70118;45.638;11.714;2023-09-19T10:27:18;28.20;82.60
59572;DHT22;70118;45.638;11.714;2023-09-19T10:29:45;28.10;83.20
59572;DHT22;70118;45.638;11.714;2023-09-19T10:32:16;28.10;83.40
59572;DHT22;70118;45.638;11.714;2023-09-19T10:34:46;28.10;83.50
59572;DHT22;70118;45.638;11.714;2023-09-19T10:37:13;28.10;83.40
59572;DHT22;70118;45.638;11.714;2023-09-19T10:39:40;28.10;83.50
59572;DHT22;70118;45.638;11.714;2023-09-19T10:42:07;28.10;83.50
59572;DHT22;70118;45.638;11.714;2023-09-19T10:44:38;28.10;83.40
59572;DHT22;70118;45.638;11.714;2023-09-19T10:47:09;28.10;83.00
59572;DHT22;70118;45.638;11.714;2023-09-19T10:49:45;28.20;82.70
59572;DHT22;70118;45.638;11.714;2023-09-19T10:52:17;28.10;82.80
59572;DHT22;70118;45.638;11.714;2023-09-19T10:54:50;28.10;82.70
59572;DHT22;70118;45.638;11.714;2023-09-19T10:57:22;28.20;82.80
59572;DHT22;70118;45.638;11.714;2023-09-19T11:00:03;28.10;83.40
59572;DHT22;70118;45.638;11.714;2023-09-19T11:08:51;28.20;83.40
59572;DHT22;70118;45.638;11.714;2023-09-19T11:30:45;28.30;81.70
59572;DHT22;70118;45.638;11.714;2023-09-19T11:33:28;28.30;81.80
59572;DHT22;70118;45.638;11.714;2023-09-19T11:36:02;28.40;81.70
59572;DHT22;70118;45.638;11.714;2023-09-19T11:46:32;28.40;81.30
59572;DHT22;70118;45.638;11.714;2023-09-19T11:49:09;28.30;81.50
59572;DHT22;70118;45.638;11.714;2023-09-19T11:51:42;28.30;81.30
59572;DHT22;70118;45.638;11.714;2023-09-19T11:54:13;28.40;81.20
59572;DHT22;70118;45.638;11.714;2023-09-19T11:56:44;28.30;81.30
59572;DHT22;70118;45.638;11.714;2023-09-19T11:59:11;28.40;81.30
59572;DHT22;70118;45.638;11.714;2023-09-19T12:01:38;28.30;81.10
59572;DHT22;70118;45.638;11.714;2023-09-19T12:04:11;28.40;81.00
59572;DHT22;70118;45.638;11.714;2023-09-19T12:06:37;28.40;80.90
59572;DHT22;70118;45.638;11.714;2023-09-19T12:09:13;28.30;80.90
59572;DHT22;70118;45.638;11.714;2023-09-19T12:11:43;28.30;80.80
59572;DHT22;70118;45.638;11.714;2023-09-19T12:14:21;28.20;80.90
59572;DHT22;70118;45.638;11.714;2023-09-19T12:16:57;28.30;81.10
59572;DHT22;70118;45.638;11.714;2023-09-19T12:19:24;28.30;81.10
59572;DHT22;70118;45.638;11.714;2023-09-19T12:22:00;28.30;81.20
59572;DHT22;70118;45.638;11.714;2023-09-19T12:24:34;28.20;81.10
59572;DHT22;70118;45.638;11.714;2023-09-19T12:27:05;28.30;81.30
59572;DHT22;70118;45.638;11.714;2023-09-19T12:29:48;28.30;81.20
59572;DHT22;70118;45.638;11.714;2023-09-19T12:32:15;28.30;81.20
59572;DHT22;70118;45.638;11.714;2023-09-19T12:34:51;28.20;81.30
59572;DHT22;70118;45.638;11.714;2023-09-19T12:37:18;28.20;81.20
59572;DHT22;70118;45.638;11.714;2023-09-19T12:39:49;28.30;81.30
59572;DHT22;70118;45.638;11.714;2023-09-19T12:42:22;28.20;81.20
59572;DHT22;70118;45.638;11.714;2023-09-19T12:44:49;28.20;81.40
59572;DHT22;70118;45.638;11.714;2023-09-19T12:47:21;28.20;81.20
59572;DHT22;70118;45.638;11.714;2023-09-19T12:50:15;28.20;81.40
59572;DHT22;70118;45.638;11.714;2023-09-19T12:52:48;28.20;81.30
59572;DHT22;70118;45.638;11.714;2023-09-19T12:55:28;28.20;81.30
59572;DHT22;70118;45.638;11.714;2023-09-19T12:58:14;28.20;81.20
59572;DHT22;70118;45.638;11.714;2023-09-19T13:00:43;28.20;81.20
59572;DHT22;70118;45.638;11.714;2023-09-19T13:08:25;28.20;81.30
59572;DHT22;70118;45.638;11.714;2023-09-19T13:11:12;28.20;81.10
59572;DHT22;70118;45.638;11.714;2023-09-19T13:13:40;28.20;81.10
59572;DHT22;70118;45.638;11.714;2023-09-19T13:16:07;28.20;81.20
59572;DHT22;70118;45.638;11.714;2023-09-19T13:18:54;28.20;81.10
59572;DHT22;70118;45.638;11.714;2023-09-19T13:21:32;28.10;81.00
59572;DHT22;70118;45.638;11.714;2023-09-19T13:24:22;28.20;81.10
59572;DHT22;70118;45.638;11.714;2023-09-19T13:26:56;28.20;81.10
59572;DHT22;70118;45.638;11.714;2023-09-19T13:29:22;28.10;81.00
59572;DHT22;70118;45.638;11.714;2023-09-19T13:31:53;28.20;81.00
59572;DHT22;70118;45.638;11.714;2023-09-19T13:34:21;28.20;81.10
59572;DHT22;70118;45.638;11.714;2023-09-19T13:36:55;28.20;81.20
59572;DHT22;70118;45.638;11.714;2023-09-19T13:39:25;28.20;81.10
59572;DHT22;70118;45.638;11.714;2023-09-19T13:41:51;28.20;81.10
59572;DHT22;70118;45.638;11.714;2023-09-19T13:44:17;28.20;81.10
59572;DHT22;70118;45.638;11.714;2023-09-19T13:46:43;28.20;81.00
59572;DHT22;70118;45.638;11.714;2023-09-19T13:49:11;28.20;81.10
59572;DHT22;70118;45.638;11.714;2023-09-19T13:51:37;28.10;81.10
59572;DHT22;70118;45.638;11.714;2023-09-19T13:54:03;28.10;81.10
59572;DHT22;70118;45.638;11.714;2023-09-19T13:56:29;28.20;81.00
59572;DHT22;70118;45.638;11.714;2023-09-19T13:58:56;28.20;81.10
59572;DHT22;70118;45.638;11.714;2023-09-19T14:01:22;28.10;81.10
59572;DHT22;70118;45.638;11.714;2023-09-19T14:03:48;28.20;81.10
59572;DHT22;70118;45.638;11.714;2023-09-19T14:06:18;28.10;81.10
59572;DHT22;70118;45.638;11.714;2023-09-19T14:08:44;28.10;81.00
59572;DHT22;70118;45.638;11.714;2023-09-19T14:11:15;28.20;81.00
59572;DHT22;70118;45.638;11.714;2023-09-19T14:13:41;28.20;80.90
59572;DHT22;70118;45.638;11.714;2023-09-19T14:16:12;28.10;81.00
59572;DHT22;70118;45.638;11.714;2023-09-19T14:18:38;28.20;81.00
59572;DHT22;70118;45.638;11.714;2023-09-19T14:21:05;28.20;81.10
59572;DHT22;70118;45.638;11.714;2023-09-19T14:23:37;28.10;80.90
59572;DHT22;70118;45.638;11.714;2023-09-19T14:26:04;28.20;80.90
59572;DHT22;70118;45.638;11.714;2023-09-19T14:28:33;28.20;80.90
59572;DHT22;70118;45.638;11.714;2023-09-19T14:31:09;28.20;80.90
59572;DHT22;70118;45.638;11.714;2023-09-19T14:33:36;28.10;81.20
59572;DHT22;70118;45.638;11.714;2023-09-19T14:36:07;28.20;81.00
59572;DHT22;70118;45.638;11.714;2023-09-19T14:38:35;28.20;80.90
59572;DHT22;70118;45.638;11.714;2023-09-19T14:41:02;28.20;81.00
59572;DHT22;70118;45.638;11.714;2023-09-19T14:43:29;28.10;80.90
59572;DHT22;70118;45.638;11.714;2023-09-19T14:46:05;28.20;81.00
59572;DHT22;70118;45.638;11.714;2023-09-19T14:48:36;28.20;81.00
59572;DHT22;70118;45.638;11.714;2023-09-19T14:51:06;28.30;80.90
59572;DHT22;70118;45.638;11.714;2023-09-19T14:53:35;28.20;80.80
59572;DHT22;70118;45.638;11.714;2023-09-19T14:56:04;28.20;80.90
59572;DHT22;70118;45.638;11.714;2023-09-19T14:58:31;28.20;80.90
59572;DHT22;70118;45.638;11.714;2023-09-19T15:01:07;28.20;80.90
59572;DHT22;70118;45.638;11.714;2023-09-19T15:03:34;28.20;80.50
59572;DHT22;70118;45.638;11.714;2023-09-19T15:06:05;28.20;80.50
59572;DHT22;70118;45.638;11.714;2023-09-19T15:08:32;28.10;80.40
59572;DHT22;70118;45.638;11.714;2023-09-19T15:11:04;28.10;80.50
59572;DHT22;70118;45.638;11.714;2023-09-19T15:13:36;28.10;80.50
59572;DHT22;70118;45.638;11.714;2023-09-19T15:16:03;28.10;80.40
59572;DHT22;70118;45.638;11.714;2023-09-19T15:18:30;28.20;80.40
59572;DHT22;70118;45.638;11.714;2023-09-19T15:20:56;28.20;80.30
59572;DHT22;70118;45.638;11.714;2023-09-19T15:23:23;28.10;80.20
59572;DHT22;70118;45.638;11.714;2023-09-19T15:25:49;28.20;80.30
59572;DHT22;70118;45.638;11.714;2023-09-19T15:28:15;28.20;80.10
59572;DHT22;70118;45.638;11.714;2023-09-19T15:30:41;28.20;80.10
59572;DHT22;70118;45.638;11.714;2023-09-19T15:33:07;28.20;80.00
59572;DHT22;70118;45.638;11.714;2023-09-19T15:35:33;28.20;79.90
59572;DHT22;70118;45.638;11.714;2023-09-19T15:37:59;28.20;80.10
59572;DHT22;70118;45.638;11.714;2023-09-19T15:40:27;28.20;80.10
59572;DHT22;70118;45.638;11.714;2023-09-19T15:42:54;28.20;80.20
59572;DHT22;70118;45.638;11.714;2023-09-19T15:45:21;28.20;80.20
59572;DHT22;70118;45.638;11.714;2023-09-19T15:47:47;28.10;80.30
59572;DHT22;70118;45.638;11.714;2023-09-19T15:50:13;28.10;80.20
59572;DHT22;70118;45.638;11.714;2023-09-19T15:52:40;28.10;80.20
59572;DHT22;70118;45.638;11.714;2023-09-19T15:55:07;28.20;80.00
59572;DHT22;70118;45.638;11.714;2023-09-19T15:57:37;28.10;79.80
59572;DHT22;70118;45.638;11.714;2023-09-19T16:00:03;28.20;79.80
59572;DHT22;70118;45.638;11.714;2023-09-19T16:02:35;28.20;79.50
59572;DHT22;70118;45.638;11.714;2023-09-19T16:05:01;28.10;79.70
59572;DHT22;70118;45.638;11.714;2023-09-19T16:07:32;28.20;79.50
59572;DHT22;70118;45.638;11.714;2023-09-19T16:09:59;28.10;79.50
59572;DHT22;70118;45.638;11.714;2023-09-19T16:12:25;28.10;79.50
59572;DHT22;70118;45.638;11.714;2023-09-19T16:14:51;28.10;79.40
59572;DHT22;70118;45.638;11.714;2023-09-19T16:17:17;28.20;79.10
59572;DHT22;70118;45.638;11.714;2023-09-19T16:19:43;28.10;79.20
59572;DHT22;70118;45.638;11.714;2023-09-19T16:22:10;28.10;79.30
59572;DHT22;70118;45.638;11.714;2023-09-19T16:24:36;28.10;79.40